Česky Dansk Deutsch English Español Suomi Français Magyar Italiano Nederlands norsk Polski Português svenska Türkçe

 

Het Weer

Kasane (Botswana)

15:00, 21 augustus 2016 (GMT)

NWNNE
WE
SWSSE
Home            
Kasane Livingstone Victoria Falls Sesheke Katima Mulilo Hwange National Park Choma Binga Senanga Maun Sua-Pan Kaoma Shakawe Mongu Gokwe Letlhakane Kariba Bulawayo Airport Lusaka Internationalairport Francistown Kabompo Kasempa Karoi

Om een weerknop op uw website of weblog te plaatsen, copieer onderstaande code en plak die in uw pagina. In het eerste vakje staat HTML-code, in het tweede vakje UBB-code.


Add to Google

Details

Wind speed:3 bf, 10 kn, 5.1 m/s, 11.5 miles/h, 18.5 km/h
Wind direction:NNE, 030° - E, 090°
Visibility:Greater than 10000 m, 10 km, 32800 ft, 6.2 miles
Clouds:CAVOC
Temperature:31°C, 88°F
Gefühlte Temperatur:29°C, 84°F
Dew-point:1°C, 34°F
Atmospheric pressure:1016 hPa, 762.1 mmHg, 30.00 inHg, 1.003 atm
Relative humidity:14.6 %
METAR:FBKE 211500Z 07010KT 030V090 CAVOK 31/01 Q1016

Snelkoppelingen

Actuele weersinformatie van de hele wereld. Voeg locaties toe met het plus (+) symbool. Deze snelkoppelingen kunnen worden toegevoegd aan Google.

Lid van de Technetium groep

website free tracking
StatCounter NetStat W3C Validator

21-10-2020 11:39:17
astro.technetium.be money.technetium.be phote.technetium.be tafeltennistafel.technetium.be www.ligfiets.net